Airfield :
LOGIN :

Register | Disclaimer

   EN    FR    IT 

 










Legend :    VFR   Marginal VFR   IFR   Intensive IFR   Very Intensive IFR
Visi :
Ceiling :
>= 8 km
>= 3000ft
5 to 8 km
1000 to 3000 ft
1500m to 5 km
500 to 1000 ft
800 to 1500m
200 to 500 ft
< 800m
< 200 ft
Symbols :   Thunderstorms  Fog  Heavy snow  Heavy precipitations  Wind > 20 kt
SIGMETs :     Misc.  Thunderstorms  Icing  Turbulence  Mountain Waves  Volcanic Ashes







- Airport Elevation : 3 ft
- IATA code : DHR


EHKD - Den Helder De Kooy

CURRENT METAR :
  • 121701Z AUTO 11009KT 070V140 9999 OVC025 04/M00 Q1026 BLU 09010KT 9999 FEW017 BKN022

EXPIRED METARs :
  • 121655Z AUTO 10007KT 060V140 9999 OVC024 04/00 Q1026 WHT 09010KT 9999 FEW017 BKN022
  • 121625Z AUTO 12008KT 090V150 9999 OVC024 04/M00 Q1026 WHT 09010KT 9999 FEW017 BKN022
  • 121615Z AUTO 12009KT 090V150 9999 OVC025 04/M01 Q1026 BLU 09010KT 9999 FEW017 BKN022
  • 121557Z AUTO 11009KT 080V140 9999 OVC026 04/M00 Q1026 BLU 09010KT 9999 FEW017 BKN022
  • 121555Z AUTO 12009KT 080V140 9999 OVC024 04/M00 Q1026 WHT 09010KT 9999 FEW017 BKN022
  • 121525Z AUTO 10008KT 070V140 9999 FEW019 OVC023 04/01 Q1026 WHT 09010KT 9999 FEW017 BKN022
  • 121509Z AUTO 10008KT 060V140 9999 FEW019 BKN023 OVC026 04/01 Q1026 WHT 09010KT 9999 FEW017 BKN022
  • 121502Z AUTO 11008KT 070V140 9999 FEW018 OVC025 04/M00 Q1026 BLU 09010KT 9999 FEW020 BKN025
  • 121457Z AUTO 11009KT 080V140 9999 FEW018 OVC025 04/00 Q1026 BLU 09010KT 9999 FEW020 BKN025
  • 121443Z AUTO 10009KT 070V130 9999 FEW017 SCT021 BKN024 04/01 Q1026 WHT 09010KT 9999 FEW020 BKN025
  • 121439Z AUTO 10009KT 070V150 9999 FEW018 SCT023 OVC027 05/01 Q1026 WHT 09010KT 9999 FEW020 BKN025
  • 121425Z AUTO 11009KT 060V140 9999 FEW022 OVC026 05/00 Q1026 BLU 09010KT 9999 FEW020 BKN025

TAF TAF EHKD
Valid from the 12 at 14:00 until the 13 at 02:00 UTC


121350Z 1214/1302 09009KT 9999 BKN028
PROB30
TEMPO 1222/1302 SCT012 BKN020
No reported NOTAMs for that airfield.



MET'MAP, your aeronautical weather chart ! - Copyright ORBIFLY December 2007 - Disclaimer

ORBIFLY MET'MAP TEAM :

Programming & Development : Alexandra Zaïnal
Concept & Development : Baudouin d'Aumeries
Co-Development & Prog : Marc-Olivier Méhu
Technical & hardware support : Manuel Goepfert

Contact : metmap@orbifly.com




SOURCES & CREDITS :

   NOAA